Rusty Hill — WDA6027 — position and weather

sailwx.info

Track history (hours):
 
Tides and Currents Weather Stations Pressure Air Temp Water Temp Dewpoint Dewpoint Depression Visibility Wind Speed Wind Dir Waves Ship Positions

Rusty Hill

Owner: Blessey Enterprises, Inc., HARAHAN, LA. More information available from US FCC via Universal Licensing System.

Last reported at 2018-May-21 21:34 UTC. Time now 2018-May-22 18:00 UTC.
Position N 28°59' W 095°16'.

Length 43 m; draft 2.6 m.

Type: Tug. MMSI: 366826930.

Date/timePositionNaut miles runAvg speedWind from/ knotsBaromVisibWave heightAir tempDewpointWater temp
2018-May-21 21:34N 28°59' W 095°16'3 6.0
2018-May-21 21:08N 29°01' W 095°14'1 5.8
2018-May-21 20:58N 29°02' W 095°14'3 5.7
2018-May-21 20:29N 29°05' W 095°13'3 5.7
2018-May-21 20:00N 29°07' W 095°11'3 6.1
2018-May-21 19:30N 29°09' W 095°09'3 6.3
2018-May-21 19:00N 29°11' W 095°06'3 6.3
2018-May-21 18:30N 29°12' W 095°03'3 6.1
2018-May-21 18:00N 29°15' W 095°00'3 6.3
2018-May-21 17:31N 29°17' W 094°58'4 7.0
2018-May-21 17:01N 29°17' W 094°54'3 6.8
2018-May-21 16:30N 29°20' W 094°51'3 5.4
2018-May-21 16:00N 29°21' W 094°49'8 4.4
2018-May-21 14:10N 29°29' W 094°52'1 5.5
2018-May-21 13:56N 29°30' W 094°52'2 5.7
2018-May-21 13:30N 29°32' W 094°54'3 6.0
2018-May-21 13:01N 29°35' W 094°56'3 6.4
2018-May-21 12:30N 29°38' W 094°58'4 7.2
2018-May-21 12:00N 29°41' W 094°59'4 6.4
2018-May-21 11:26N 29°44' W 095°02'5 1.1
2018-May-21 07:19N 29°47' W 095°05'6 0.2
2018-May-20 01:13N 29°42' W 095°01'1 6.7
2018-May-20 01:01N 29°42' W 094°59'3 6.0
2018-May-20 00:30N 29°39' W 094°58'2 4.2
2018-May-20 00:01N 29°37' W 094°59'2 5.0
2018-May-19 23:31N 29°37' W 095°01'0 0.2
2018-May-19 23:01N 29°37' W 095°01'0 0.0
2018-May-19 22:31N 29°37' W 095°01'0 0.0
2018-May-19 22:01N 29°37' W 095°01'0 0.0
2018-May-19 21:30N 29°37' W 095°01'0 0.0
2018-May-19 21:01N 29°37' W 095°01'0 0.0
2018-May-19 20:30N 29°37' W 095°01'0 0.0
2018-May-19 20:01N 29°37' W 095°01'0 0.0
2018-May-19 19:30N 29°37' W 095°01'0 0.0
2018-May-19 19:01N 29°37' W 095°01'0 0.0
2018-May-19 18:30N 29°37' W 095°01'0 0.0
2018-May-19 17:59N 29°37' W 095°01'0 0.0
2018-May-19 17:30N 29°37' W 095°01'0 0.0
2018-May-19 17:01N 29°37' W 095°01'0 0.0
2018-May-19 16:31N 29°37' W 095°01'0 0.0
2018-May-19 16:01N 29°37' W 095°01'0 0.0
2018-May-19 15:31N 29°37' W 095°01'0 0.4
2018-May-19 15:00N 29°37' W 095°01'0 0.3
2018-May-19 14:30N 29°37' W 095°01'1 1.3
2018-May-19 14:00N 29°37' W 095°01'3 6.2
2018-May-19 13:31N 29°36' W 094°57'3 6.5
2018-May-19 13:01N 29°34' W 094°55'14 6.9
2018-May-19 10:57N 29°20' W 094°50'3 6.3
2018-May-19 10:30N 29°19' W 094°53'2 4.6
2018-May-19 10:00N 29°17' W 094°55'2 4.3
2018-May-19 09:31N 29°17' W 094°57'3 6.9
2018-May-19 09:01N 29°15' W 095°00'3 6.7
2018-May-19 08:31N 29°12' W 095°03'3 6.7
2018-May-19 08:01N 29°11' W 095°06'3 5.7
2018-May-19 07:31N 29°09' W 095°09'3 6.4
2018-May-19 07:01N 29°07' W 095°11'3 5.6
2018-May-19 06:30N 29°04' W 095°13'3 5.3
2018-May-19 06:00N 29°02' W 095°14'3 5.4
2018-May-19 05:29N 28°60' W 095°15'41 1.9
2018-May-18 08:00N 28°44' W 095°58'2 4.0
2018-May-18 07:29N 28°42' W 095°59'2 2.4
2018-May-18 06:40N 28°42' W 095°57'1 5.2
2018-May-18 06:28N 28°42' W 095°55'4 5.3
2018-May-18 05:48N 28°44' W 095°52'1 4.8
2018-May-18 05:30N 28°44' W 095°50'2 4.7
2018-May-18 04:59N 28°45' W 095°48'3 4.7
2018-May-18 04:24N 28°45' W 095°44'2 4.2
2018-May-18 03:56N 28°45' W 095°42'2 3.9
2018-May-18 03:25N 28°46' W 095°40'2 4.2
2018-May-18 03:00N 28°46' W 095°38'15 5.1
2018-May-18 00:03N 28°54' W 095°24'0 4.9
2018-May-18 00:00N 28°54' W 095°23'12 1.2
2018-May-17 13:55N 29°02' W 095°14'2 4.3
2018-May-17 13:29N 29°04' W 095°13'2 4.5
2018-May-17 13:01N 29°06' W 095°12'2 4.8
2018-May-17 12:30N 29°08' W 095°10'3 5.3
2018-May-17 12:01N 29°10' W 095°08'21 5.6
2018-May-17 08:16N 29°22' W 094°48'7 7.2
2018-May-17 07:14N 29°29' W 094°52'2 7.5
2018-May-17 07:00N 29°30' W 094°52'3 6.5
2018-May-17 06:31N 29°33' W 094°55'3 6.9
2018-May-17 06:00N 29°36' W 094°57'3 4.9
2018-May-17 05:30N 29°37' W 094°59'2 3.9
2018-May-17 05:00N 29°37' W 095°01'0 0.0
2018-May-17 04:31N 29°37' W 095°01'0 0.0
2018-May-17 04:01N 29°37' W 095°01'0 0.0
2018-May-17 03:31N 29°37' W 095°01'0 0.0
2018-May-17 03:00N 29°37' W 095°01'0 0.0
2018-May-17 02:31N 29°37' W 095°01'0 0.0
2018-May-17 02:01N 29°37' W 095°01'0 0.0
2018-May-17 01:30N 29°37' W 095°01'0 0.0
2018-May-17 01:00N 29°37' W 095°01'0 0.0
2018-May-17 00:31N 29°37' W 095°01'0 0.0
2018-May-17 00:00N 29°37' W 095°01'0 0.0
2018-May-16 23:30N 29°37' W 095°01'0 0.0
2018-May-16 23:00N 29°37' W 095°01'0 0.0
2018-May-16 22:30N 29°37' W 095°01'0 0.0
2018-May-16 22:00N 29°37' W 095°01'0 0.4
2018-May-16 21:30N 29°37' W 095°01'3 6.7
2018-May-16 21:00N 29°37' W 094°57'4 6.8
2018-May-16 20:28N 29°34' W 094°55'4 7.5
2018-May-16 20:00N 29°31' W 094°53'12 5.7
2018-May-16 17:59N 29°19' W 094°51'3 6.7
2018-May-16 17:31N 29°17' W 094°54'3 6.6
2018-May-16 17:00N 29°17' W 094°57'2 4.7
2018-May-16 16:30N 29°16' W 094°60'3 6.4
2018-May-16 16:00N 29°13' W 095°02'3 6.4
2018-May-16 15:31N 29°11' W 095°05'3 6.4
2018-May-16 15:00N 29°10' W 095°08'3 6.7
2018-May-16 14:30N 29°07' W 095°11'3 6.9
2018-May-16 14:00N 29°04' W 095°13'4 7.4
2018-May-16 13:28N 29°01' W 095°15'4 7.5
2018-May-16 13:00N 28°58' W 095°17'3 6.6
2018-May-16 12:30N 28°56' W 095°20'3 6.0
2018-May-16 12:01N 28°54' W 095°23'2 3.6
2018-May-16 11:31N 28°53' W 095°25'3 4.7
2018-May-16 10:57N 28°52' W 095°27'3 6.0
2018-May-16 10:30N 28°51' W 095°30'3 6.6
2018-May-16 10:00N 28°49' W 095°33'4 7.2
2018-May-16 09:30N 28°47' W 095°36'3 6.9
2018-May-16 09:00N 28°46' W 095°40'3 6.5
2018-May-16 08:30N 28°44' W 095°43'3 6.4
2018-May-16 08:00N 28°45' W 095°47'3 6.2
2018-May-16 07:31N 28°44' W 095°50'3 6.0
2018-May-16 07:00N 28°43' W 095°53'3 5.8
2018-May-16 06:30N 28°42' W 095°57'2 3.7
2018-May-16 06:00N 28°41' W 095°59'2 4.0
2018-May-16 05:28N 28°43' W 095°58'12 0.8
2018-May-15 14:17N 28°45' W 095°45'4 5.8
2018-May-15 13:31N 28°46' W 095°40'0 6.4
2018-May-15 13:30N 28°46' W 095°40'3 5.6
2018-May-15 13:00N 28°46' W 095°37'7 5.3
2018-May-15 11:42N 28°51' W 095°31'3 5.8
2018-May-15 11:14N 28°52' W 095°28'2 5.9
2018-May-15 10:56N 28°53' W 095°26'15 4.8
2018-May-15 07:51N 29°02' W 095°14'2 5.4
2018-May-15 07:24N 29°05' W 095°13'2 5.4
2018-May-15 07:01N 29°07' W 095°12'3 5.5
2018-May-15 06:31N 29°09' W 095°10'3 5.7
2018-May-15 06:00N 29°10' W 095°07'3 5.2
2018-May-15 05:31N 29°12' W 095°04'3 5.5
2018-May-15 05:00N 29°13' W 095°02'3 5.5
2018-May-15 04:31N 29°15' W 094°60'3 5.0
2018-May-15 04:00N 29°17' W 094°58'2 4.6
2018-May-15 03:30N 29°17' W 094°55'2 4.2
2018-May-15 03:01N 29°18' W 094°53'3 5.3
2018-May-15 02:28N 29°20' W 094°50'2 5.1
2018-May-15 02:00N 29°21' W 094°48'4 7.8
2018-May-15 01:30N 29°25' W 094°50'4 7.3
2018-May-15 01:01N 29°28' W 094°51'3 6.7
2018-May-15 00:31N 29°31' W 094°53'3 6.5
2018-May-15 00:01N 29°34' W 094°55'3 6.4
2018-May-14 23:31N 29°37' W 094°57'3 6.1
2018-May-14 23:01N 29°37' W 095°01'0 1.0
2018-May-14 22:31N 29°37' W 095°01'0 0.0
2018-May-14 22:00N 29°37' W 095°01'0 0.0
2018-May-14 21:31N 29°37' W 095°01'0 0.0
2018-May-14 21:01N 29°37' W 095°01'0 0.0
2018-May-14 20:31N 29°37' W 095°01'0 0.0
2018-May-14 20:01N 29°37' W 095°01'0 0.0
2018-May-14 19:31N 29°37' W 095°01'0 0.0
2018-May-14 19:00N 29°37' W 095°01'0 0.0
2018-May-14 18:31N 29°37' W 095°01'0 0.0
2018-May-14 18:01N 29°37' W 095°01'0 0.0
2018-May-14 17:30N 29°37' W 095°01'0 0.0
2018-May-14 17:01N 29°37' W 095°01'0 0.0
2018-May-14 16:31N 29°37' W 095°01'0 0.0
2018-May-14 16:00N 29°37' W 095°01'0 0.0
2018-May-14 15:31N 29°37' W 095°01'2 3.2
2018-May-14 15:01N 29°37' W 094°60'3 6.3
2018-May-14 14:30N 29°35' W 094°56'4 7.3
2018-May-14 14:01N 29°32' W 094°54'6 7.5
2018-May-14 13:13N 29°27' W 094°51'3 7.8
2018-May-14 12:53N 29°25' W 094°49'3 8.0
2018-May-14 12:29N 29°22' W 094°48'3 6.6
2018-May-14 12:01N 29°20' W 094°51'3 6.3
2018-May-14 11:29N 29°17' W 094°53'3 5.5
2018-May-14 11:00N 29°17' W 094°56'3 5.6
2018-May-14 10:30N 29°16' W 094°59'3 6.3
2018-May-14 10:00N 29°14' W 095°02'3 6.2
2018-May-14 09:30N 29°12' W 095°04'2 4.6
2018-May-14 09:01N 29°10' W 095°07'0 0.7
2018-May-14 08:31N 29°10' W 095°07'3 6.8
2018-May-14 08:00N 29°08' W 095°10'3 6.8
2018-May-14 07:29N 29°05' W 095°12'3 6.8
2018-May-14 07:01N 29°02' W 095°14'4 7.1
2018-May-14 06:30N 28°59' W 095°16'4 7.2
2018-May-14 05:59N 28°57' W 095°19'1 2.2
2018-May-14 05:31N 28°57' W 095°20'0 0.7
2018-May-14 05:00N 28°57' W 095°20'0 0.0
2018-May-14 04:30N 28°57' W 095°20'0 0.0
2018-May-14 04:00N 28°57' W 095°20'0 0.0
2018-May-14 03:30N 28°57' W 095°20'0 0.0
2018-May-14 02:57N 28°57' W 095°20'0 0.0
2018-May-14 02:27N 28°57' W 095°20'0 0.1
2018-May-14 01:58N 28°57' W 095°20'1 1.0
2018-May-14 01:29N 28°57' W 095°20'1 2.0
2018-May-14 00:59N 28°56' W 095°19'3 5.9
2018-May-14 00:30N 28°54' W 095°22'2 4.5
2018-May-13 23:59N 28°54' W 095°24'3 5.8
2018-May-13 23:29N 28°52' W 095°27'3 6.4
2018-May-13 22:59N 28°51' W 095°31'3 5.9
2018-May-13 22:29N 28°48' W 095°33'3 6.2
2018-May-13 22:01N 28°47' W 095°36'3 5.6
2018-May-13 21:27N 28°46' W 095°39'29 0.8
2018-May-12 09:34N 29°03' W 095°13'1 5.1
2018-May-12 09:27N 29°04' W 095°13'2 5.3
2018-May-12 09:01N 29°06' W 095°12'3 5.3
2018-May-12 08:30N 29°08' W 095°10'3 5.5
2018-May-12 08:01N 29°10' W 095°08'3 5.6
2018-May-12 07:30N 29°11' W 095°05'2 3.7
2018-May-12 07:01N 29°12' W 095°03'2 3.9
2018-May-12 06:31N 29°14' W 095°02'3 5.8
2018-May-12 06:01N 29°16' W 094°59'3 5.8
2018-May-12 05:31N 29°17' W 094°57'3 5.7
2018-May-12 05:01N 29°18' W 094°53'3 6.2
2018-May-12 04:30N 29°20' W 094°51'3 5.3
2018-May-12 04:01N 29°22' W 094°48'8 6.7
2018-May-12 02:48N 29°29' W 094°52'2 6.7
2018-May-12 02:29N 29°31' W 094°53'3 6.5
2018-May-12 02:01N 29°34' W 094°55'3 6.5
2018-May-12 01:31N 29°36' W 094°57'3 5.6
2018-May-12 01:01N 29°37' W 095°00'1 2.2
2018-May-12 00:31N 29°37' W 095°01'0 0.0
2018-May-12 00:00N 29°37' W 095°01'0 0.0
2018-May-11 23:30N 29°37' W 095°01'0 0.0
2018-May-11 23:01N 29°37' W 095°01'0 0.0
2018-May-11 22:30N 29°37' W 095°01'0 0.0
2018-May-11 22:00N 29°37' W 095°01'  
Track history (hours):
 
Tides and Currents Weather Stations Pressure Air Temp Water Temp Dewpoint Dewpoint Depression Visibility Wind Speed Wind Dir Waves Ship Positions

Rusty Hill

Owner: Blessey Enterprises, Inc., HARAHAN, LA. More information available from US FCC via Universal Licensing System.

Last reported at 2018-May-21 21:34 UTC. Time now 2018-May-22 18:00 UTC.
Position N 28°59' W 095°16'.

Length 43 m; draft 2.6 m.

Type: Tug. MMSI: 366826930.

Date/timePositionNaut miles runAvg speedWind from/ knotsBaromVisibWave heightAir tempDewpointWater temp
2018-May-21 21:34N 28°59' W 095°16'3 6.0
2018-May-21 21:08N 29°01' W 095°14'1 5.8
2018-May-21 20:58N 29°02' W 095°14'3 5.7
2018-May-21 20:29N 29°05' W 095°13'3 5.7
2018-May-21 20:00N 29°07' W 095°11'3 6.1
2018-May-21 19:30N 29°09' W 095°09'3 6.3
2018-May-21 19:00N 29°11' W 095°06'3 6.3
2018-May-21 18:30N 29°12' W 095°03'3 6.1
2018-May-21 18:00N 29°15' W 095°00'3 6.3
2018-May-21 17:31N 29°17' W 094°58'4 7.0
2018-May-21 17:01N 29°17' W 094°54'3 6.8
2018-May-21 16:30N 29°20' W 094°51'3 5.4
2018-May-21 16:00N 29°21' W 094°49'8 4.4
2018-May-21 14:10N 29°29' W 094°52'1 5.5
2018-May-21 13:56N 29°30' W 094°52'2 5.7
2018-May-21 13:30N 29°32' W 094°54'3 6.0
2018-May-21 13:01N 29°35' W 094°56'3 6.4
2018-May-21 12:30N 29°38' W 094°58'4 7.2
2018-May-21 12:00N 29°41' W 094°59'4 6.4
2018-May-21 11:26N 29°44' W 095°02'5 1.1
2018-May-21 07:19N 29°47' W 095°05'6 0.2
2018-May-20 01:13N 29°42' W 095°01'1 6.7
2018-May-20 01:01N 29°42' W 094°59'3 6.0
2018-May-20 00:30N 29°39' W 094°58'2 4.2
2018-May-20 00:01N 29°37' W 094°59'2 5.0
2018-May-19 23:31N 29°37' W 095°01'0 0.2
2018-May-19 23:01N 29°37' W 095°01'0 0.0
2018-May-19 22:31N 29°37' W 095°01'0 0.0
2018-May-19 22:01N 29°37' W 095°01'0 0.0
2018-May-19 21:30N 29°37' W 095°01'0 0.0
2018-May-19 21:01N 29°37' W 095°01'0 0.0
2018-May-19 20:30N 29°37' W 095°01'0 0.0
2018-May-19 20:01N 29°37' W 095°01'0 0.0
2018-May-19 19:30N 29°37' W 095°01'0 0.0
2018-May-19 19:01N 29°37' W 095°01'0 0.0
2018-May-19 18:30N 29°37' W 095°01'0 0.0
2018-May-19 17:59N 29°37' W 095°01'0 0.0
2018-May-19 17:30N 29°37' W 095°01'0 0.0
2018-May-19 17:01N 29°37' W 095°01'0 0.0
2018-May-19 16:31N 29°37' W 095°01'0 0.0
2018-May-19 16:01N 29°37' W 095°01'0 0.0
2018-May-19 15:31N 29°37' W 095°01'0 0.4
2018-May-19 15:00N 29°37' W 095°01'0 0.3
2018-May-19 14:30N 29°37' W 095°01'1 1.3
2018-May-19 14:00N 29°37' W 095°01'3 6.2
2018-May-19 13:31N 29°36' W 094°57'3 6.5
2018-May-19 13:01N 29°34' W 094°55'14 6.9
2018-May-19 10:57N 29°20' W 094°50'3 6.3
2018-May-19 10:30N 29°19' W 094°53'2 4.6
2018-May-19 10:00N 29°17' W 094°55'2 4.3
2018-May-19 09:31N 29°17' W 094°57'3 6.9
2018-May-19 09:01N 29°15' W 095°00'3 6.7
2018-May-19 08:31N 29°12' W 095°03'3 6.7
2018-May-19 08:01N 29°11' W 095°06'3 5.7
2018-May-19 07:31N 29°09' W 095°09'3 6.4
2018-May-19 07:01N 29°07' W 095°11'3 5.6
2018-May-19 06:30N 29°04' W 095°13'3 5.3
2018-May-19 06:00N 29°02' W 095°14'3 5.4
2018-May-19 05:29N 28°60' W 095°15'41 1.9
2018-May-18 08:00N 28°44' W 095°58'2 4.0
2018-May-18 07:29N 28°42' W 095°59'2 2.4
2018-May-18 06:40N 28°42' W 095°57'1 5.2
2018-May-18 06:28N 28°42' W 095°55'4 5.3
2018-May-18 05:48N 28°44' W 095°52'1 4.8
2018-May-18 05:30N 28°44' W 095°50'2 4.7
2018-May-18 04:59N 28°45' W 095°48'3 4.7
2018-May-18 04:24N 28°45' W 095°44'2 4.2
2018-May-18 03:56N 28°45' W 095°42'2 3.9
2018-May-18 03:25N 28°46' W 095°40'2 4.2
2018-May-18 03:00N 28°46' W 095°38'15 5.1
2018-May-18 00:03N 28°54' W 095°24'0 4.9
2018-May-18 00:00N 28°54' W 095°23'12 1.2
2018-May-17 13:55N 29°02' W 095°14'2 4.3
2018-May-17 13:29N 29°04' W 095°13'2 4.5
2018-May-17 13:01N 29°06' W 095°12'2 4.8
2018-May-17 12:30N 29°08' W 095°10'3 5.3
2018-May-17 12:01N 29°10' W 095°08'21 5.6
2018-May-17 08:16N 29°22' W 094°48'7 7.2
2018-May-17 07:14N 29°29' W 094°52'2 7.5
2018-May-17 07:00N 29°30' W 094°52'3 6.5
2018-May-17 06:31N 29°33' W 094°55'3 6.9
2018-May-17 06:00N 29°36' W 094°57'3 4.9
2018-May-17 05:30N 29°37' W 094°59'2 3.9
2018-May-17 05:00N 29°37' W 095°01'0 0.0
2018-May-17 04:31N 29°37' W 095°01'0 0.0
2018-May-17 04:01N 29°37' W 095°01'0 0.0
2018-May-17 03:31N 29°37' W 095°01'0 0.0
2018-May-17 03:00N 29°37' W 095°01'0 0.0
2018-May-17 02:31N 29°37' W 095°01'0 0.0
2018-May-17 02:01N 29°37' W 095°01'0 0.0
2018-May-17 01:30N 29°37' W 095°01'0 0.0
2018-May-17 01:00N 29°37' W 095°01'0 0.0
2018-May-17 00:31N 29°37' W 095°01'0 0.0
2018-May-17 00:00N 29°37' W 095°01'0 0.0
2018-May-16 23:30N 29°37' W 095°01'0 0.0
2018-May-16 23:00N 29°37' W 095°01'0 0.0
2018-May-16 22:30N 29°37' W 095°01'0 0.0
2018-May-16 22:00N 29°37' W 095°01'0 0.4
2018-May-16 21:30N 29°37' W 095°01'3 6.7
2018-May-16 21:00N 29°37' W 094°57'4 6.8
2018-May-16 20:28N 29°34' W 094°55'4 7.5
2018-May-16 20:00N 29°31' W 094°53'12 5.7
2018-May-16 17:59N 29°19' W 094°51'3 6.7
2018-May-16 17:31N 29°17' W 094°54'3 6.6
2018-May-16 17:00N 29°17' W 094°57'2 4.7
2018-May-16 16:30N 29°16' W 094°60'3 6.4
2018-May-16 16:00N 29°13' W 095°02'3 6.4
2018-May-16 15:31N 29°11' W 095°05'3 6.4
2018-May-16 15:00N 29°10' W 095°08'3 6.7
2018-May-16 14:30N 29°07' W 095°11'3 6.9
2018-May-16 14:00N 29°04' W 095°13'4 7.4
2018-May-16 13:28N 29°01' W 095°15'4 7.5
2018-May-16 13:00N 28°58' W 095°17'3 6.6
2018-May-16 12:30N 28°56' W 095°20'3 6.0
2018-May-16 12:01N 28°54' W 095°23'2 3.6
2018-May-16 11:31N 28°53' W 095°25'3 4.7
2018-May-16 10:57N 28°52' W 095°27'3 6.0
2018-May-16 10:30N 28°51' W 095°30'3 6.6
2018-May-16 10:00N 28°49' W 095°33'4 7.2
2018-May-16 09:30N 28°47' W 095°36'3 6.9
2018-May-16 09:00N 28°46' W 095°40'3 6.5
2018-May-16 08:30N 28°44' W 095°43'3 6.4
2018-May-16 08:00N 28°45' W 095°47'3 6.2
2018-May-16 07:31N 28°44' W 095°50'3 6.0
2018-May-16 07:00N 28°43' W 095°53'3 5.8
2018-May-16 06:30N 28°42' W 095°57'2 3.7
2018-May-16 06:00N 28°41' W 095°59'2 4.0
2018-May-16 05:28N 28°43' W 095°58'12 0.8
2018-May-15 14:17N 28°45' W 095°45'4 5.8
2018-May-15 13:31N 28°46' W 095°40'0 6.4
2018-May-15 13:30N 28°46' W 095°40'3 5.6
2018-May-15 13:00N 28°46' W 095°37'7 5.3
2018-May-15 11:42N 28°51' W 095°31'3 5.8
2018-May-15 11:14N 28°52' W 095°28'2 5.9
2018-May-15 10:56N 28°53' W 095°26'15 4.8
2018-May-15 07:51N 29°02' W 095°14'2 5.4
2018-May-15 07:24N 29°05' W 095°13'2 5.4
2018-May-15 07:01N 29°07' W 095°12'3 5.5
2018-May-15 06:31N 29°09' W 095°10'3 5.7
2018-May-15 06:00N 29°10' W 095°07'3 5.2
2018-May-15 05:31N 29°12' W 095°04'3 5.5
2018-May-15 05:00N 29°13' W 095°02'3 5.5
2018-May-15 04:31N 29°15' W 094°60'3 5.0
2018-May-15 04:00N 29°17' W 094°58'2 4.6
2018-May-15 03:30N 29°17' W 094°55'2 4.2
2018-May-15 03:01N 29°18' W 094°53'3 5.3
2018-May-15 02:28N 29°20' W 094°50'2 5.1
2018-May-15 02:00N 29°21' W 094°48'4 7.8
2018-May-15 01:30N 29°25' W 094°50'4 7.3
2018-May-15 01:01N 29°28' W 094°51'3 6.7
2018-May-15 00:31N 29°31' W 094°53'3 6.5
2018-May-15 00:01N 29°34' W 094°55'3 6.4
2018-May-14 23:31N 29°37' W 094°57'3 6.1
2018-May-14 23:01N 29°37' W 095°01'0 1.0
2018-May-14 22:31N 29°37' W 095°01'0 0.0
2018-May-14 22:00N 29°37' W 095°01'0 0.0
2018-May-14 21:31N 29°37' W 095°01'0 0.0
2018-May-14 21:01N 29°37' W 095°01'0 0.0
2018-May-14 20:31N 29°37' W 095°01'0 0.0
2018-May-14 20:01N 29°37' W 095°01'0 0.0
2018-May-14 19:31N 29°37' W 095°01'0 0.0
2018-May-14 19:00N 29°37' W 095°01'0 0.0
2018-May-14 18:31N 29°37' W 095°01'0 0.0
2018-May-14 18:01N 29°37' W 095°01'0 0.0
2018-May-14 17:30N 29°37' W 095°01'0 0.0
2018-May-14 17:01N 29°37' W 095°01'0 0.0
2018-May-14 16:31N 29°37' W 095°01'0 0.0
2018-May-14 16:00N 29°37' W 095°01'0 0.0
2018-May-14 15:31N 29°37' W 095°01'2 3.2
2018-May-14 15:01N 29°37' W 094°60'3 6.3
2018-May-14 14:30N 29°35' W 094°56'4 7.3
2018-May-14 14:01N 29°32' W 094°54'6 7.5
2018-May-14 13:13N 29°27' W 094°51'3 7.8
2018-May-14 12:53N 29°25' W 094°49'3 8.0
2018-May-14 12:29N 29°22' W 094°48'3 6.6
2018-May-14 12:01N 29°20' W 094°51'3 6.3
2018-May-14 11:29N 29°17' W 094°53'3 5.5
2018-May-14 11:00N 29°17' W 094°56'3 5.6
2018-May-14 10:30N 29°16' W 094°59'3 6.3
2018-May-14 10:00N 29°14' W 095°02'3 6.2
2018-May-14 09:30N 29°12' W 095°04'2 4.6
2018-May-14 09:01N 29°10' W 095°07'0 0.7
2018-May-14 08:31N 29°10' W 095°07'3 6.8
2018-May-14 08:00N 29°08' W 095°10'3 6.8
2018-May-14 07:29N 29°05' W 095°12'3 6.8
2018-May-14 07:01N 29°02' W 095°14'4 7.1
2018-May-14 06:30N 28°59' W 095°16'4 7.2
2018-May-14 05:59N 28°57' W 095°19'1 2.2
2018-May-14 05:31N 28°57' W 095°20'0 0.7
2018-May-14 05:00N 28°57' W 095°20'0 0.0
2018-May-14 04:30N 28°57' W 095°20'0 0.0
2018-May-14 04:00N 28°57' W 095°20'0 0.0
2018-May-14 03:30N 28°57' W 095°20'0 0.0
2018-May-14 02:57N 28°57' W 095°20'0 0.0
2018-May-14 02:27N 28°57' W 095°20'0 0.1
2018-May-14 01:58N 28°57' W 095°20'1 1.0
2018-May-14 01:29N 28°57' W 095°20'1 2.0
2018-May-14 00:59N 28°56' W 095°19'3 5.9
2018-May-14 00:30N 28°54' W 095°22'2 4.5
2018-May-13 23:59N 28°54' W 095°24'3 5.8
2018-May-13 23:29N 28°52' W 095°27'3 6.4
2018-May-13 22:59N 28°51' W 095°31'3 5.9
2018-May-13 22:29N 28°48' W 095°33'3 6.2
2018-May-13 22:01N 28°47' W 095°36'3 5.6
2018-May-13 21:27N 28°46' W 095°39'29 0.8
2018-May-12 09:34N 29°03' W 095°13'1 5.1
2018-May-12 09:27N 29°04' W 095°13'2 5.3
2018-May-12 09:01N 29°06' W 095°12'3 5.3
2018-May-12 08:30N 29°08' W 095°10'3 5.5
2018-May-12 08:01N 29°10' W 095°08'3 5.6
2018-May-12 07:30N 29°11' W 095°05'2 3.7
2018-May-12 07:01N 29°12' W 095°03'2 3.9
2018-May-12 06:31N 29°14' W 095°02'3 5.8
2018-May-12 06:01N 29°16' W 094°59'3 5.8
2018-May-12 05:31N 29°17' W 094°57'3 5.7
2018-May-12 05:01N 29°18' W 094°53'3 6.2
2018-May-12 04:30N 29°20' W 094°51'3 5.3
2018-May-12 04:01N 29°22' W 094°48'8 6.7
2018-May-12 02:48N 29°29' W 094°52'2 6.7
2018-May-12 02:29N 29°31' W 094°53'3 6.5
2018-May-12 02:01N 29°34' W 094°55'3 6.5
2018-May-12 01:31N 29°36' W 094°57'3 5.6
2018-May-12 01:01N 29°37' W 095°00'1 2.2
2018-May-12 00:31N 29°37' W 095°01'0 0.0
2018-May-12 00:00N 29°37' W 095°01'0 0.0
2018-May-11 23:30N 29°37' W 095°01'0 0.0
2018-May-11 23:01N 29°37' W 095°01'0 0.0
2018-May-11 22:30N 29°37' W 095°01'0 0.0
2018-May-11 22:00N 29°37' W 095°01'  

Dump ship's entire track history